Wednesday, October 18, 2017, 6:07 PM EDT
Back to Local

KORH, Worcester Regional Airport

Location: Worcester, MA, United States Lat: 42.267
Local Time: 6:07 PM EDT (22:07 GMT) Lon: -71.867
Time Zone: US/Eastern Elev: 1010 ft

Show me the last for .
Show Decoded

2017-10-18 16:54 METAR KORH 182054Z 24007KT 10SM CLR 19/04 A3024 RMK AO2 SLP242 T01890044 56002 =
2017-10-18 15:54 METAR KORH 181954Z 24008KT 10SM CLR 19/03 A3024 RMK AO2 SLP242 T01890033 =
2017-10-18 14:54 METAR KORH 181854Z 25008G16KT 10SM CLR 19/03 A3024 RMK AO2 SLP243 T01890033 =
2017-10-18 13:54 METAR KORH 181754Z 28008KT 10SM CLR 19/04 A3024 RMK AO2 SLP244 T01890039 10189
                 20061 58009 =
2017-10-18 12:54 METAR KORH 181654Z 23008KT 10SM CLR 17/04 A3026 RMK AO2 SLP252 T01720039 =
2017-10-18 11:54 METAR KORH 181554Z 26008KT 10SM CLR 16/04 A3028 RMK AO2 SLP258 T01610044 =
2017-10-18 10:54 METAR KORH 181454Z 25010KT 10SM CLR 14/04 A3027 RMK AO2 SLP256 T01440039 51011 =
2017-10-18 09:54 METAR KORH 181354Z 25012KT 10SM CLR 13/03 A3026 RMK AO2 SLP254 T01280033 =
2017-10-18 08:54 METAR KORH 181254Z 23009KT 10SM CLR 10/02 A3026 RMK AO2 SLP253 T01000022 =
2017-10-18 07:54 METAR KORH 181154Z 27009KT 10SM CLR 06/01 A3024 RMK AO2 SLP248 T00610011 10072
                 20056 53013 =
2017-10-18 06:54 METAR KORH 181054Z 26009KT 10SM CLR 06/01 A3022 RMK AO2 SLP239 T00610006 =
2017-10-18 05:54 METAR KORH 180954Z AUTO 26011KT 10SM CLR 06/01 A3021 RMK AO2 SLP235 T00610006 =
2017-10-18 04:54 METAR KORH 180854Z AUTO 26011KT 10SM CLR 06/01 A3020 RMK AO2 SLP233 T00610011
                 53004 =
2017-10-18 03:54 METAR KORH 180754Z AUTO 26010KT 10SM CLR 07/01 A3019 RMK AO2 SLP228 T00720011 =
2017-10-18 02:54 METAR KORH 180654Z AUTO 25013KT 10SM CLR 07/01 A3018 RMK AO2 SLP226 T00670011 =
2017-10-18 01:54 METAR KORH 180554Z AUTO 25015KT 10SM CLR 07/01 A3019 RMK AO2 SLP228 T00720011
                 10078 20056 58008 =
2017-10-18 00:54 METAR KORH 180454Z AUTO 25014KT 10SM CLR 07/01 A3020 RMK AO2 SLP232 T00720011
                 401220017 =
2017-10-17 23:54 METAR KORH 180354Z AUTO 24015KT 10SM CLR 07/01 A3021 RMK AO2 SLP236 T00720006 =
2017-10-17 22:54 METAR KORH 180254Z AUTO 23012KT 10SM CLR 07/00 A3022 RMK AO2 SLP239 T00670000
                 50000 =
2017-10-17 21:54 METAR KORH 180154Z AUTO 22006KT 10SM CLR 06/M01 A3023 RMK AO2 SLP244 T00561006 =
2017-10-17 20:54 METAR KORH 180054Z 21008KT 10SM CLR 07/M02 A3023 RMK AO2 SLP244 T00671022 =
2017-10-17 19:54 METAR KORH 172354Z 22007KT 10SM CLR 06/M02 A3021 RMK AO2 SLP241 T00561017 10122
                 20056 53003 =
2017-10-17 18:54 METAR KORH 172254Z 22006KT 10SM CLR 06/M01 A3021 RMK AO2 SLP239 T00611011 =

Support USWX by starting your Amazon purchase here.